createdAt,value
2022-08-03T00:00:39.124Z,79.26
2022-08-03T00:01:34.198Z,79.35
2022-08-03T00:02:29.279Z,79.38
2022-08-03T00:03:24.431Z,79.41
2022-08-03T00:04:19.550Z,79.33
2022-08-03T00:05:14.615Z,79.51
2022-08-03T00:06:09.596Z,79.57
2022-08-03T00:07:04.686Z,79.60
2022-08-03T00:07:59.895Z,79.56
2022-08-03T00:08:54.996Z,79.52
2022-08-03T00:09:50.217Z,79.64
2022-08-03T00:10:45.295Z,79.67
2022-08-03T00:11:40.538Z,79.60
2022-08-03T00:12:35.783Z,79.50
2022-08-03T00:13:31.729Z,79.53
2022-08-03T00:14:27.101Z,79.55
2022-08-03T00:15:22.345Z,79.66
2022-08-03T00:16:18.662Z,79.92
2022-08-03T00:17:13.880Z,79.94
2022-08-03T00:18:09.704Z,79.93
2022-08-03T00:19:04.905Z,80.11
2022-08-03T00:20:00.204Z,80.22
2022-08-03T00:20:55.887Z,80.17
2022-08-03T00:21:51.123Z,80.10
2022-08-03T00:22:46.914Z,80.05
2022-08-03T00:23:51.216Z,79.98
2022-08-03T00:24:38.451Z,80.00
2022-08-03T00:25:33.051Z,79.93
2022-08-03T00:26:28.299Z,79.83
2022-08-03T00:27:23.403Z,79.89
2022-08-03T00:28:19.866Z,80.00
2022-08-03T00:29:15.164Z,79.95
2022-08-03T00:30:10.943Z,80.08
2022-08-03T00:31:06.149Z,79.93
2022-08-03T00:32:01.269Z,79.90
2022-08-03T00:32:57.856Z,79.94
2022-08-03T00:33:59.289Z,79.98
2022-08-03T00:34:59.089Z,80.06
2022-08-03T00:35:50.259Z,80.13
2022-08-03T00:36:41.949Z,80.25
2022-08-03T00:37:40.581Z,80.18
2022-08-03T00:38:33.104Z,80.62
2022-08-03T00:39:27.138Z,80.64
2022-08-03T00:40:22.258Z,80.70
2022-08-03T00:41:19.258Z,80.74
2022-08-03T00:42:14.542Z,80.66
2022-08-03T00:43:09.656Z,80.76
2022-08-03T00:44:06.152Z,80.63
2022-08-03T00:45:01.393Z,80.72
2022-08-03T00:45:57.253Z,80.64
2022-08-03T00:46:52.439Z,80.55
2022-08-03T00:47:47.706Z,80.53
2022-08-03T00:48:43.381Z,80.38
2022-08-03T00:49:38.696Z,80.44
2022-08-03T00:50:34.410Z,80.46
2022-08-03T00:51:29.758Z,80.42
2022-08-03T00:52:25.025Z,80.49
2022-08-03T00:53:20.686Z,80.61
2022-08-03T00:54:15.925Z,80.83
2022-08-03T00:55:11.024Z,80.96
2022-08-03T00:56:07.492Z,81.00
2022-08-03T00:57:02.775Z,81.06
2022-08-03T00:57:58.553Z,80.89
2022-08-03T00:58:53.765Z,80.68
2022-08-03T00:59:48.889Z,80.49
2022-08-03T01:00:44.675Z,80.36
2022-08-03T01:01:39.898Z,80.38
2022-08-03T01:02:35.596Z,80.47
2022-08-03T01:03:30.806Z,80.53
2022-08-03T01:04:26.060Z,80.60
2022-08-03T01:05:21.853Z,80.60
2022-08-03T01:06:16.986Z,80.77
2022-08-03T01:07:12.231Z,80.75
2022-08-03T01:08:08.441Z,80.89
2022-08-03T01:09:03.661Z,80.89
2022-08-03T01:09:59.451Z,81.11
2022-08-03T01:10:54.544Z,80.97
2022-08-03T01:12:01.079Z,81.04
2022-08-03T01:12:46.549Z,81.09
2022-08-03T01:14:03.410Z,81.03
2022-08-03T01:14:37.518Z,80.90
2022-08-03T01:15:31.706Z,80.83
2022-08-03T01:16:36.018Z,80.93
2022-08-03T01:17:24.195Z,81.22
2022-08-03T01:18:18.370Z,81.45
2022-08-03T01:19:14.297Z,81.52
2022-08-03T01:20:09.396Z,81.53
2022-08-03T01:21:04.527Z,81.48
2022-08-03T01:22:00.367Z,81.61
2022-08-03T01:22:55.476Z,81.64
2022-08-03T01:23:51.414Z,81.66
2022-08-03T01:24:46.528Z,81.58
2022-08-03T01:25:41.900Z,81.49
2022-08-03T01:26:37.735Z,81.46
2022-08-03T01:27:33.011Z,81.59
2022-08-03T01:28:28.243Z,81.82
2022-08-03T01:29:24.604Z,81.92
2022-08-03T01:30:19.818Z,81.61
2022-08-03T01:31:15.187Z,81.59
2022-08-03T01:32:52.391Z,81.56
2022-08-03T01:33:07.917Z,81.65
2022-08-03T01:34:01.821Z,81.69
2022-08-03T01:34:56.964Z,81.77
2022-08-03T01:35:52.217Z,81.61
2022-08-03T01:36:48.547Z,81.70
2022-08-03T01:37:43.772Z,81.56
2022-08-03T01:38:38.918Z,81.48
2022-08-03T01:39:38.330Z,81.24
2022-08-03T01:40:33.590Z,81.39
2022-08-03T01:41:28.691Z,81.34
2022-08-03T01:42:23.812Z,81.41
2022-08-03T01:44:26.925Z,81.31
2022-08-03T01:44:29.986Z,81.40
2022-08-03T01:45:10.014Z,81.41
2022-08-03T01:46:04.150Z,81.43
2022-08-03T01:46:59.259Z,81.75
2022-08-03T01:47:54.492Z,81.78
2022-08-03T01:48:49.622Z,81.72
2022-08-03T01:49:44.899Z,81.66
2022-08-03T01:50:39.876Z,81.74
2022-08-03T01:52:02.820Z,81.47
2022-08-03T01:52:30.938Z,81.62
2022-08-03T01:53:24.957Z,81.49
2022-08-03T01:54:20.034Z,81.46
2022-08-03T01:55:15.039Z,81.56
2022-08-03T01:56:10.129Z,81.35
2022-08-03T01:57:05.108Z,81.58
2022-08-03T01:58:05.535Z,81.78
2022-08-03T01:58:56.338Z,81.93
2022-08-03T01:59:50.395Z,82.03
2022-08-03T02:00:45.719Z,82.05
2022-08-03T02:02:15.340Z,82.03
2022-08-03T02:02:40.972Z,81.99
2022-08-03T02:03:34.549Z,82.10
2022-08-03T02:04:29.570Z,81.95
2022-08-03T02:05:24.695Z,81.82
2022-08-03T02:07:01.968Z,81.73
2022-08-03T02:07:15.715Z,81.76
2022-08-03T02:08:09.782Z,81.81
2022-08-03T02:09:05.017Z,82.04
2022-08-03T02:10:00.267Z,82.01
2022-08-03T02:10:55.390Z,82.03
2022-08-03T02:11:51.851Z,81.95
2022-08-03T02:12:50.816Z,81.82
2022-08-03T02:13:42.881Z,82.10
2022-08-03T02:14:38.232Z,82.15
2022-08-03T02:15:33.230Z,82.17
2022-08-03T02:16:29.041Z,82.04
2022-08-03T02:17:40.136Z,82.02
2022-08-03T02:18:21.143Z,81.90
2022-08-03T02:19:15.160Z,81.82
2022-08-03T02:20:10.411Z,81.80
2022-08-03T02:21:11.088Z,81.77
2022-08-03T02:22:02.179Z,81.81
2022-08-03T02:22:57.518Z,82.04
2022-08-03T02:23:53.629Z,82.32
2022-08-03T02:24:51.190Z,82.69
2022-08-03T02:25:44.674Z,82.85
2022-08-03T02:26:39.908Z,82.98
2022-08-03T02:27:35.148Z,83.10
2022-08-03T02:28:30.826Z,83.32
2022-08-03T02:29:39.606Z,83.31
2022-08-03T02:30:22.936Z,83.21
2022-08-03T02:31:17.094Z,82.95
2022-08-03T02:32:12.337Z,82.73
2022-08-03T02:33:08.963Z,82.42
2022-08-03T02:34:04.139Z,82.19
2022-08-03T02:34:59.227Z,81.98
2022-08-03T02:35:55.769Z,82.00
2022-08-03T02:36:50.904Z,81.84
2022-08-03T02:37:49.541Z,81.82
2022-08-03T02:38:41.822Z,81.78
2022-08-03T02:39:36.964Z,81.80
2022-08-03T02:40:32.776Z,81.86
2022-08-03T02:41:27.946Z,82.06
2022-08-03T02:42:23.738Z,82.06
2022-08-03T02:43:18.934Z,82.04
2022-08-03T02:44:14.222Z,81.99
2022-08-03T02:45:10.023Z,81.98
2022-08-03T02:46:05.262Z,81.82
2022-08-03T02:47:00.341Z,81.60
2022-08-03T02:47:56.693Z,81.67
2022-08-03T02:48:51.992Z,81.62
2022-08-03T02:49:51.348Z,81.68
2022-08-03T02:50:42.856Z,81.67
2022-08-03T02:51:37.996Z,81.67
2022-08-03T02:52:33.817Z,81.61
2022-08-03T02:53:29.063Z,81.88
2022-08-03T02:54:25.006Z,81.98
2022-08-03T02:55:20.107Z,82.04
2022-08-03T02:56:15.522Z,82.14
2022-08-03T02:57:11.351Z,82.03
2022-08-03T02:58:06.593Z,81.96
2022-08-03T02:59:01.940Z,82.16
2022-08-03T02:59:57.028Z,82.14
2022-08-03T03:00:52.880Z,82.22
2022-08-03T03:01:47.967Z,82.54
2022-08-03T03:02:44.561Z,82.58
2022-08-03T03:03:40.040Z,82.61
2022-08-03T03:04:35.058Z,82.44
2022-08-03T03:05:52.990Z,82.54
2022-08-03T03:06:26.056Z,82.57
2022-08-03T03:07:20.866Z,82.69
2022-08-03T03:08:18.682Z,82.67
2022-08-03T03:09:12.035Z,82.65
2022-08-03T03:10:07.171Z,82.71
2022-08-03T03:11:02.285Z,82.92
2022-08-03T03:11:58.095Z,83.05
2022-08-03T03:12:53.325Z,82.81
2022-08-03T03:13:48.673Z,82.93
2022-08-03T03:14:44.756Z,83.12
2022-08-03T03:15:40.031Z,83.01
2022-08-03T03:16:35.258Z,82.70
2022-08-03T03:17:30.367Z,82.18
2022-08-03T03:18:28.044Z,81.95
2022-08-03T03:19:23.268Z,81.97
2022-08-03T03:20:26.739Z,81.96
2022-08-03T03:21:14.546Z,81.96
2022-08-03T03:22:08.744Z,82.03
2022-08-03T03:23:04.530Z,82.13
2022-08-03T03:23:59.640Z,82.02
2022-08-03T03:24:54.924Z,82.28
2022-08-03T03:25:50.022Z,82.17
2022-08-03T03:26:45.142Z,82.06
2022-08-03T03:27:40.354Z,81.93
2022-08-03T03:28:36.270Z,81.96
2022-08-03T03:29:31.390Z,81.97
2022-08-03T03:30:27.592Z,82.16
2022-08-03T03:31:21.732Z,82.12
2022-08-03T03:32:17.267Z,82.05
2022-08-03T03:33:12.117Z,82.10
2022-08-03T03:34:08.873Z,82.29
2022-08-03T03:35:04.114Z,82.14
2022-08-03T03:35:59.296Z,82.13
2022-08-03T03:36:58.629Z,82.29
2022-08-03T03:37:53.664Z,82.46
2022-08-03T03:38:48.847Z,82.67
2022-08-03T03:39:44.015Z,82.74
2022-08-03T03:40:39.307Z,82.79
2022-08-03T03:41:34.619Z,82.76
2022-08-03T03:42:29.732Z,82.64
2022-08-03T03:43:25.001Z,82.60
2022-08-03T03:44:20.035Z,82.51
2022-08-03T03:45:15.039Z,82.45
2022-08-03T03:46:10.043Z,82.41
2022-08-03T03:47:09.666Z,82.38
2022-08-03T03:48:04.691Z,82.57
2022-08-03T03:49:00.017Z,82.43
2022-08-03T03:49:55.177Z,82.50
2022-08-03T03:50:50.465Z,82.66
2022-08-03T03:51:45.749Z,82.61
2022-08-03T03:52:40.959Z,82.57
2022-08-03T03:53:36.319Z,82.54
2022-08-03T03:54:31.395Z,82.41
2022-08-03T03:55:26.613Z,82.41
2022-08-03T03:56:21.802Z,82.51
2022-08-03T03:57:17.162Z,82.61
2022-08-03T03:58:12.258Z,82.69
2022-08-03T03:59:07.520Z,82.81
2022-08-03T04:00:02.824Z,82.73
2022-08-03T04:00:58.282Z,82.70
2022-08-03T04:01:58.877Z,82.69
2022-08-03T04:02:49.881Z,82.76
2022-08-03T04:03:44.191Z,82.77
2022-08-03T04:04:39.487Z,82.82
2022-08-03T04:05:34.600Z,82.94
2022-08-03T04:06:29.584Z,83.02
2022-08-03T04:07:24.592Z,83.05
2022-08-03T04:08:19.727Z,83.10
2022-08-03T04:09:14.746Z,83.06
2022-08-03T04:10:14.570Z,83.17
2022-08-03T04:11:06.568Z,83.16
2022-08-03T04:12:00.857Z,82.96
2022-08-03T04:12:56.106Z,82.80
2022-08-03T04:13:51.429Z,82.68
2022-08-03T04:14:46.696Z,82.49
2022-08-03T04:15:42.093Z,82.37
2022-08-03T04:16:40.772Z,82.37
2022-08-03T04:17:33.240Z,82.48
2022-08-03T04:18:27.294Z,82.45
2022-08-03T04:19:23.436Z,82.24
2022-08-03T04:20:17.851Z,82.49
2022-08-03T04:21:12.991Z,82.46
2022-08-03T04:22:07.981Z,82.27
2022-08-03T04:23:03.020Z,82.27
2022-08-03T04:23:59.055Z,82.17
2022-08-03T04:24:53.116Z,82.14
2022-08-03T04:25:48.224Z,82.13
2022-08-03T04:26:43.227Z,82.20
2022-08-03T04:27:38.258Z,82.25
2022-08-03T04:28:33.249Z,82.32
2022-08-03T04:29:28.314Z,82.28
2022-08-03T04:30:23.288Z,82.25
2022-08-03T04:31:18.315Z,82.21
2022-08-03T04:32:13.429Z,82.14
2022-08-03T04:33:08.376Z,82.07
2022-08-03T04:34:03.402Z,82.17
2022-08-03T04:34:58.630Z,82.03
2022-08-03T04:35:58.601Z,81.98
2022-08-03T04:36:50.293Z,81.92
2022-08-03T04:37:46.013Z,81.92
2022-08-03T04:38:41.309Z,82.10
2022-08-03T04:39:36.672Z,82.10
2022-08-03T04:40:31.963Z,82.31
2022-08-03T04:41:27.271Z,82.32
2022-08-03T04:42:25.849Z,82.51
2022-08-03T04:43:21.168Z,82.45
2022-08-03T04:44:16.499Z,82.24
2022-08-03T04:45:11.841Z,82.11
2022-08-03T04:46:07.148Z,82.05
2022-08-03T04:47:02.438Z,81.97
2022-08-03T04:47:57.777Z,81.97
2022-08-03T04:48:53.126Z,82.01
2022-08-03T04:49:48.558Z,81.80
2022-08-03T04:50:43.763Z,81.70
2022-08-03T04:51:39.057Z,81.62
2022-08-03T04:52:34.409Z,81.78
2022-08-03T04:53:29.758Z,81.52
2022-08-03T04:54:25.064Z,81.36
2022-08-03T04:55:20.381Z,81.35
2022-08-03T04:56:15.694Z,81.41
2022-08-03T04:57:11.018Z,81.65
2022-08-03T04:58:07.376Z,81.91
2022-08-03T04:59:01.737Z,81.92
2022-08-03T05:00:02.542Z,82.08
2022-08-03T05:00:53.354Z,82.14
2022-08-03T05:01:47.868Z,81.97
2022-08-03T05:02:43.065Z,82.07
2022-08-03T05:03:38.360Z,82.07
2022-08-03T05:04:33.704Z,82.01
2022-08-03T05:05:50.137Z,82.17
2022-08-03T05:06:26.836Z,82.24
2022-08-03T05:07:25.049Z,82.10
2022-08-03T05:08:16.570Z,81.95
2022-08-03T05:09:11.909Z,81.81
2022-08-03T05:10:15.094Z,81.57
2022-08-03T05:11:04.144Z,81.48
2022-08-03T05:11:58.539Z,81.37
2022-08-03T05:12:53.878Z,81.29
2022-08-03T05:13:49.319Z,81.28
2022-08-03T05:14:44.531Z,81.26
2022-08-03T05:15:42.711Z,81.53
2022-08-03T05:16:34.673Z,81.39
2022-08-03T05:17:29.767Z,81.47
2022-08-03T05:18:25.125Z,81.40
2022-08-03T05:19:20.134Z,81.27
2022-08-03T05:20:18.777Z,81.19
2022-08-03T05:21:10.263Z,80.83
2022-08-03T05:22:06.155Z,80.59
2022-08-03T05:23:01.646Z,80.55
2022-08-03T05:23:56.914Z,80.58
2022-08-03T05:24:52.267Z,80.41
2022-08-03T05:25:49.684Z,80.33
2022-08-03T05:26:43.417Z,80.10
2022-08-03T05:27:38.766Z,79.83
2022-08-03T05:28:34.167Z,79.88
2022-08-03T05:29:29.517Z,79.85
2022-08-03T05:30:30.467Z,79.82
2022-08-03T05:31:21.298Z,79.94
2022-08-03T05:32:16.148Z,79.84
2022-08-03T05:33:11.535Z,79.74
2022-08-03T05:34:06.902Z,79.51
2022-08-03T05:36:00.746Z,79.45
2022-08-03T05:36:03.476Z,79.42
2022-08-03T05:36:52.994Z,79.31
2022-08-03T05:37:54.831Z,79.06
2022-08-03T05:38:43.136Z,79.06
2022-08-03T05:39:37.173Z,78.98
2022-08-03T05:40:32.274Z,79.09
2022-08-03T05:41:36.825Z,78.87
2022-08-03T05:42:26.362Z,78.83
2022-08-03T05:43:20.710Z,78.61
2022-08-03T05:44:16.111Z,78.83
2022-08-03T05:45:11.772Z,78.69
2022-08-03T05:46:12.849Z,78.65
2022-08-03T05:47:03.538Z,78.52
2022-08-03T05:47:57.955Z,78.63
2022-08-03T05:48:53.462Z,78.78
2022-08-03T05:49:48.746Z,78.65
2022-08-03T05:50:44.111Z,78.70
2022-08-03T05:51:39.627Z,78.47
2022-08-03T05:52:34.860Z,78.32
2022-08-03T05:53:30.306Z,78.14
2022-08-03T05:54:25.679Z,78.07
2022-08-03T05:55:21.765Z,78.03
2022-08-03T05:56:16.820Z,77.79
2022-08-03T05:57:10.889Z,77.76
2022-08-03T05:58:05.973Z,77.43
2022-08-03T05:59:16.302Z,77.25
2022-08-03T05:59:58.672Z,76.94
2022-08-03T06:00:51.180Z,76.63
2022-08-03T06:01:46.335Z,76.57
2022-08-03T06:02:41.270Z,76.20
2022-08-03T06:03:36.387Z,76.03
2022-08-03T06:04:33.647Z,75.86
2022-08-03T06:05:29.146Z,75.80
2022-08-03T06:06:24.419Z,75.78
2022-08-03T06:07:19.807Z,75.80
2022-08-03T06:08:15.517Z,75.66
2022-08-03T06:09:10.249Z,75.56
2022-08-03T06:10:35.912Z,75.25
2022-08-03T06:11:01.466Z,75.06
2022-08-03T06:11:55.496Z,75.01
2022-08-03T06:12:50.464Z,74.87
2022-08-03T06:13:45.563Z,74.51
2022-08-03T06:14:40.685Z,74.45
2022-08-03T06:15:35.775Z,74.28
2022-08-03T06:16:30.895Z,74.32
2022-08-03T06:17:25.877Z,73.86
2022-08-03T06:18:20.872Z,73.66
2022-08-03T06:19:16.074Z,73.53
2022-08-03T06:20:11.323Z,73.29
2022-08-03T06:21:15.431Z,72.82
2022-08-03T06:22:03.104Z,72.72
2022-08-03T06:23:00.446Z,72.40
2022-08-03T06:23:55.510Z,72.06
2022-08-03T06:24:53.570Z,71.59
2022-08-03T06:25:44.741Z,71.49
2022-08-03T06:26:39.149Z,71.31
2022-08-03T06:27:36.524Z,71.30
2022-08-03T06:28:52.503Z,71.35
2022-08-03T06:29:26.359Z,71.10
2022-08-03T06:30:21.391Z,71.11
2022-08-03T06:31:16.373Z,70.98
2022-08-03T06:32:11.471Z,70.68
2022-08-03T06:33:08.208Z,70.62
2022-08-03T06:34:35.219Z,70.48
2022-08-03T06:34:58.606Z,69.98
2022-08-03T06:35:53.045Z,69.49
2022-08-03T06:36:48.432Z,69.40
2022-08-03T06:37:43.908Z,69.39
2022-08-03T06:38:39.151Z,69.04
2022-08-03T06:39:34.511Z,68.84
2022-08-03T06:40:29.618Z,68.82
2022-08-03T06:41:24.725Z,68.40
2022-08-03T06:42:20.619Z,68.60
2022-08-03T06:43:16.647Z,68.53
2022-08-03T06:44:11.738Z,68.12
2022-08-03T06:45:06.815Z,67.85
2022-08-03T06:46:01.932Z,67.47
2022-08-03T06:46:57.030Z,67.31
2022-08-03T06:47:52.105Z,67.19
2022-08-03T06:48:47.109Z,67.10
2022-08-03T06:49:42.292Z,67.18
2022-08-03T06:50:37.201Z,66.51
2022-08-03T06:52:04.853Z,66.69
2022-08-03T06:52:38.047Z,65.03
2022-08-03T06:53:23.393Z,64.44
2022-08-03T06:54:17.653Z,64.57
2022-08-03T06:55:13.025Z,64.56
2022-08-03T06:56:08.556Z,64.19
2022-08-03T06:57:03.813Z,64.54
2022-08-03T06:57:59.828Z,64.37
2022-08-03T06:58:54.552Z,64.39
2022-08-03T07:00:07.971Z,63.88
2022-08-03T07:00:46.311Z,63.69
2022-08-03T07:01:40.827Z,62.69
2022-08-03T07:02:36.201Z,61.63
2022-08-03T07:03:31.546Z,61.55
2022-08-03T07:04:26.910Z,61.87
2022-08-03T07:05:22.288Z,62.06
2022-08-03T07:06:17.678Z,61.84
2022-08-03T07:07:13.050Z,61.24
2022-08-03T07:08:08.554Z,61.15
2022-08-03T07:09:03.797Z,61.57
2022-08-03T07:09:59.150Z,61.51
2022-08-03T07:10:54.569Z,61.35
2022-08-03T07:11:50.018Z,61.36
2022-08-03T07:12:56.220Z,60.89
2022-08-03T07:13:41.749Z,60.91
2022-08-03T07:14:36.151Z,60.34
2022-08-03T07:15:55.449Z,60.18
2022-08-03T07:16:29.053Z,60.55
2022-08-03T07:17:23.463Z,60.40
2022-08-03T07:18:29.253Z,60.67
2022-08-03T07:19:15.212Z,59.85
2022-08-03T07:20:09.756Z,59.81
2022-08-03T07:21:05.198Z,59.00
2022-08-03T07:22:02.126Z,58.19
2022-08-03T07:22:56.104Z,57.58
2022-08-03T07:23:51.393Z,57.42
2022-08-03T07:24:46.818Z,57.22
2022-08-03T07:25:42.272Z,57.01
2022-08-03T07:26:37.735Z,57.42
2022-08-03T07:27:33.146Z,56.30
2022-08-03T07:28:28.582Z,55.78
2022-08-03T07:29:23.608Z,55.94
2022-08-03T07:30:18.621Z,56.30
2022-08-03T07:31:13.816Z,56.35
2022-08-03T07:32:08.846Z,55.84
2022-08-03T07:33:04.025Z,55.31
2022-08-03T07:33:59.043Z,54.82
2022-08-03T07:34:58.430Z,55.12
2022-08-03T07:35:52.793Z,54.76
2022-08-03T07:36:46.856Z,53.75
2022-08-03T07:37:41.969Z,53.49
2022-08-03T07:38:37.974Z,53.04
2022-08-03T07:39:33.088Z,53.16
2022-08-03T07:40:31.565Z,53.39
2022-08-03T07:41:24.092Z,53.79
2022-08-03T07:42:19.614Z,53.69
2022-08-03T07:43:15.128Z,53.16
2022-08-03T07:44:10.681Z,52.90
2022-08-03T07:45:06.086Z,53.31
2022-08-03T07:46:01.733Z,52.22
2022-08-03T07:46:57.036Z,52.15
2022-08-03T07:47:53.697Z,52.22
2022-08-03T07:48:47.951Z,52.17
2022-08-03T07:49:43.521Z,52.84
2022-08-03T07:50:39.031Z,51.66
2022-08-03T07:51:34.596Z,51.71
2022-08-03T07:52:29.562Z,51.98
2022-08-03T07:53:24.669Z,51.56
2022-08-03T07:54:19.661Z,51.35
2022-08-03T07:55:14.742Z,51.13
2022-08-03T07:56:11.470Z,51.56
2022-08-03T07:57:04.925Z,50.93
2022-08-03T07:58:00.031Z,51.77
2022-08-03T07:58:55.692Z,51.09
2022-08-03T07:59:58.677Z,51.20
2022-08-03T08:00:46.928Z,51.17
2022-08-03T08:01:41.044Z,50.73
2022-08-03T08:02:36.957Z,50.73
2022-08-03T08:03:41.970Z,51.02
2022-08-03T08:04:28.874Z,50.81
2022-08-03T08:05:23.339Z,50.50
2022-08-03T08:06:18.846Z,50.28
2022-08-03T08:07:14.249Z,49.79
2022-08-03T08:08:09.705Z,49.23
2022-08-03T08:09:05.237Z,49.18
2022-08-03T08:10:00.758Z,49.24
2022-08-03T08:10:56.888Z,49.99
2022-08-03T08:11:51.925Z,51.18
2022-08-03T08:12:47.302Z,50.99
2022-08-03T08:13:42.391Z,50.81
2022-08-03T08:14:37.667Z,50.72
2022-08-03T08:15:32.573Z,50.24
2022-08-03T08:16:27.589Z,49.56
2022-08-03T08:17:22.595Z,49.29
2022-08-03T08:18:17.598Z,48.33
2022-08-03T08:19:12.836Z,48.36
2022-08-03T08:20:07.704Z,48.58
2022-08-03T08:21:02.736Z,48.50
2022-08-03T08:22:02.344Z,48.77
2022-08-03T08:22:56.247Z,48.57
2022-08-03T08:23:54.984Z,48.84
2022-08-03T08:24:47.386Z,49.21
2022-08-03T08:25:42.534Z,50.08
2022-08-03T08:26:38.065Z,50.29
2022-08-03T08:28:31.805Z,49.29
2022-08-03T08:28:33.501Z,49.59
2022-08-03T08:29:24.616Z,49.87
2022-08-03T08:30:20.296Z,50.15
2022-08-03T08:31:15.050Z,49.69
2022-08-03T08:32:10.051Z,49.21
2022-08-03T08:33:05.074Z,48.55
2022-08-03T08:34:04.310Z,47.69
2022-08-03T08:34:55.146Z,46.92
2022-08-03T08:35:50.295Z,46.19
2022-08-03T08:36:45.247Z,46.36
2022-08-03T08:37:41.048Z,47.25
2022-08-03T08:38:36.600Z,47.23
2022-08-03T08:39:32.153Z,47.40
2022-08-03T08:40:27.685Z,47.28
2022-08-03T08:41:23.332Z,47.28
2022-08-03T08:42:18.898Z,46.92
2022-08-03T08:43:14.169Z,46.62
2022-08-03T08:44:09.570Z,45.72
2022-08-03T08:45:05.123Z,46.64
2022-08-03T08:46:00.579Z,46.71
2022-08-03T08:46:55.974Z,46.38
2022-08-03T08:47:53.260Z,46.90
2022-08-03T08:48:47.280Z,46.11
2022-08-03T08:49:58.221Z,44.70
2022-08-03T08:50:39.174Z,44.35
2022-08-03T08:52:00.434Z,44.75
2022-08-03T08:52:31.869Z,44.25
2022-08-03T08:53:27.233Z,44.57
2022-08-03T08:54:21.121Z,44.98
2022-08-03T08:55:16.505Z,44.51
2022-08-03T08:56:11.939Z,45.05
2022-08-03T08:57:21.334Z,44.25
2022-08-03T08:58:04.006Z,43.01
2022-08-03T08:58:58.467Z,43.33
2022-08-03T08:59:57.265Z,43.75
2022-08-03T09:00:49.589Z,43.78
2022-08-03T09:01:44.967Z,44.62
2022-08-03T09:02:40.368Z,44.16
2022-08-03T09:03:35.655Z,44.84
2022-08-03T09:04:31.158Z,44.89
2022-08-03T09:05:47.389Z,44.02
2022-08-03T09:06:23.102Z,44.26
2022-08-03T09:07:21.436Z,44.87
2022-08-03T09:08:16.835Z,44.88
2022-08-03T09:10:00.293Z,45.20
2022-08-03T09:10:12.842Z,45.36
2022-08-03T09:11:03.298Z,45.03
2022-08-03T09:12:20.843Z,45.12
2022-08-03T09:12:55.069Z,43.83
2022-08-03T09:13:49.424Z,44.14
2022-08-03T09:15:00.758Z,44.43
2022-08-03T09:15:41.471Z,44.84
2022-08-03T09:16:37.287Z,44.73
2022-08-03T09:17:31.870Z,44.53
2022-08-03T09:18:27.255Z,44.31
2022-08-03T09:19:24.077Z,44.41
2022-08-03T09:20:18.556Z,43.99
2022-08-03T09:21:30.013Z,44.27
2022-08-03T09:22:10.583Z,43.89
2022-08-03T09:23:18.990Z,43.80
2022-08-03T09:24:03.370Z,44.18
2022-08-03T09:25:21.601Z,44.97
2022-08-03T09:25:51.495Z,44.89
2022-08-03T09:26:45.534Z,44.78
2022-08-03T09:27:40.623Z,44.49
2022-08-03T09:29:01.603Z,44.63
2022-08-03T09:29:31.864Z,44.72
2022-08-03T09:30:34.177Z,44.46
2022-08-03T09:31:22.731Z,44.22
2022-08-03T09:32:17.289Z,43.99
2022-08-03T09:33:12.827Z,43.85
2022-08-03T09:34:08.366Z,44.16
2022-08-03T09:35:03.895Z,43.47
2022-08-03T09:35:59.442Z,43.39
2022-08-03T09:36:55.945Z,42.87
2022-08-03T09:38:12.702Z,42.81
2022-08-03T09:38:46.920Z,43.28
2022-08-03T09:39:42.399Z,43.34
2022-08-03T09:40:36.512Z,43.01
2022-08-03T09:41:31.555Z,42.69
2022-08-03T09:42:26.568Z,42.65
2022-08-03T09:43:23.139Z,42.61
2022-08-03T09:44:25.394Z,42.93
2022-08-03T09:45:14.222Z,43.32
2022-08-03T09:46:08.293Z,43.33
2022-08-03T09:47:04.731Z,43.58
2022-08-03T09:48:00.010Z,43.23
2022-08-03T09:48:55.599Z,43.08
2022-08-03T09:49:50.999Z,42.93
2022-08-03T09:50:58.465Z,42.46
2022-08-03T09:52:38.179Z,41.83
2022-08-03T09:52:50.209Z,41.95
2022-08-03T09:53:34.195Z,41.95
2022-08-03T09:54:28.633Z,40.67
2022-08-03T09:56:33.400Z,40.93
2022-08-03T09:56:36.435Z,41.10
2022-08-03T09:57:16.746Z,41.46
2022-08-03T09:58:11.120Z,40.84
2022-08-03T09:59:06.499Z,40.43
2022-08-03T10:00:07.735Z,40.40
2022-08-03T10:00:57.934Z,40.37
2022-08-03T10:01:51.918Z,40.74
2022-08-03T10:02:46.914Z,40.33
2022-08-03T10:04:04.431Z,40.59
2022-08-03T10:04:38.005Z,40.83
2022-08-03T10:05:32.069Z,40.30
2022-08-03T10:06:29.165Z,39.67
2022-08-03T10:07:24.215Z,39.94
2022-08-03T10:08:19.777Z,39.79
2022-08-03T10:09:15.297Z,39.58
2022-08-03T10:10:31.765Z,40.21
2022-08-03T10:11:07.192Z,40.52
2022-08-03T10:12:01.657Z,40.33
2022-08-03T10:12:57.273Z,39.79
2022-08-03T10:13:52.588Z,39.65
2022-08-03T10:14:49.022Z,39.88
2022-08-03T10:16:24.078Z,39.87
2022-08-03T10:16:39.953Z,38.83
2022-08-03T10:17:40.064Z,39.23
2022-08-03T10:18:31.174Z,39.50
2022-08-03T10:19:25.556Z,38.89
2022-08-03T10:20:20.656Z,38.57
2022-08-03T10:21:15.680Z,38.53
2022-08-03T10:22:10.758Z,39.05
2022-08-03T10:23:05.787Z,39.19
2022-08-03T10:24:06.814Z,39.31
2022-08-03T10:25:02.283Z,39.36
2022-08-03T10:25:57.605Z,39.26
2022-08-03T10:26:53.667Z,38.93
2022-08-03T10:27:48.985Z,38.55
2022-08-03T10:28:45.521Z,38.50
2022-08-03T10:29:40.815Z,38.43
2022-08-03T10:30:36.284Z,38.92
2022-08-03T10:31:32.172Z,39.20
2022-08-03T10:32:27.635Z,39.55
2022-08-03T10:33:50.007Z,39.77
2022-08-03T10:34:20.073Z,38.04
2022-08-03T10:35:20.389Z,37.42
2022-08-03T10:36:11.413Z,37.32
2022-08-03T10:37:05.801Z,36.73
2022-08-03T10:38:01.258Z,35.92
2022-08-03T10:38:57.644Z,34.99
2022-08-03T10:39:52.977Z,34.94
2022-08-03T10:40:50.390Z,35.87
2022-08-03T10:41:44.763Z,35.28
2022-08-03T10:42:40.483Z,35.68
2022-08-03T10:43:36.216Z,34.98
2022-08-03T10:44:31.704Z,34.52
2022-08-03T10:45:27.159Z,35.15
2022-08-03T10:46:22.904Z,36.18
2022-08-03T10:47:18.679Z,35.53
2022-08-03T10:48:14.663Z,35.17
2022-08-03T10:49:09.743Z,34.60
2022-08-03T10:50:05.350Z,34.95
2022-08-03T10:51:01.105Z,35.08
2022-08-03T10:51:56.534Z,35.22
2022-08-03T10:52:52.112Z,34.38
2022-08-03T10:53:54.614Z,35.12
2022-08-03T10:54:44.717Z,34.70
2022-08-03T10:55:39.475Z,34.15
2022-08-03T10:56:48.148Z,34.43
2022-08-03T10:57:31.769Z,33.95
2022-08-03T10:58:30.794Z,34.46
2022-08-03T10:59:22.973Z,33.79
2022-08-03T11:00:18.462Z,34.06
2022-08-03T11:01:12.942Z,32.11
2022-08-03T11:02:09.394Z,33.24
2022-08-03T11:03:04.968Z,33.39
2022-08-03T11:04:00.687Z,33.24
2022-08-03T11:04:56.158Z,33.08
2022-08-03T11:05:51.586Z,33.93
2022-08-03T11:06:47.448Z,33.83
2022-08-03T11:07:42.878Z,33.65
2022-08-03T11:08:38.328Z,33.39
2022-08-03T11:09:34.656Z,33.08
2022-08-03T11:10:30.229Z,33.01
2022-08-03T11:11:26.080Z,32.38
2022-08-03T11:12:21.674Z,32.20
2022-08-03T11:13:18.661Z,32.56
2022-08-03T11:14:13.175Z,32.75
2022-08-03T11:15:09.049Z,32.51
2022-08-03T11:16:07.101Z,32.64
2022-08-03T11:16:59.937Z,32.87
2022-08-03T11:17:55.994Z,32.47
2022-08-03T11:18:50.136Z,32.09
2022-08-03T11:19:57.400Z,32.34
2022-08-03T11:20:47.329Z,32.29
2022-08-03T11:21:42.367Z,32.70
2022-08-03T11:22:37.903Z,32.76
2022-08-03T11:24:05.492Z,32.11
2022-08-03T11:24:30.192Z,31.92
2022-08-03T11:25:53.815Z,32.02
2022-08-03T11:26:23.841Z,31.07
2022-08-03T11:27:19.247Z,31.23
2022-08-03T11:28:14.464Z,31.25
2022-08-03T11:29:10.279Z,31.31
2022-08-03T11:30:05.720Z,31.62
2022-08-03T11:31:01.191Z,31.22
2022-08-03T11:31:57.053Z,31.38
2022-08-03T11:32:52.711Z,30.58
2022-08-03T11:33:48.007Z,30.24
2022-08-03T11:34:44.570Z,30.54
2022-08-03T11:35:40.014Z,30.99
2022-08-03T11:36:35.816Z,29.37
2022-08-03T11:37:33.382Z,29.87
2022-08-03T11:38:26.642Z,30.45
2022-08-03T11:39:21.724Z,31.32
2022-08-03T11:40:16.769Z,31.01
2022-08-03T11:41:12.085Z,30.30
2022-08-03T11:42:06.820Z,30.40
2022-08-03T11:43:01.879Z,30.42
2022-08-03T11:43:57.042Z,30.66
2022-08-03T11:44:52.113Z,30.92
2022-08-03T11:45:47.127Z,30.98
2022-08-03T11:46:42.203Z,30.04
2022-08-03T11:47:37.238Z,30.19
2022-08-03T11:48:33.322Z,31.17
2022-08-03T11:49:27.426Z,30.82
2022-08-03T11:50:22.445Z,30.88
2022-08-03T11:51:17.494Z,30.98
2022-08-03T11:52:12.622Z,30.80
2022-08-03T11:53:07.566Z,30.68
2022-08-03T11:54:02.638Z,30.48